»·PEaware :: N143VT KSFO-KOTH

N143VT :: KSFO-KOTH

FLIGHT INFORMATION

Flight Status: Arrived
Operator: Privately registered:
United States
More flights under this callsign
Pilot: Anonymous 16492 (16492)
Aircraft: BOMBARDIER BD-100 CHALLENGER 300
(CL30)
More flights by this aircraft type
Origin: KSFO San Francisco Intl
United States
Destination: KOTH North Bend Mun
United States
More flights between these airports :: More routes between these airports
Route: +TRUKN2 DEDHD RBL LEDGE LUPCI OTH
File this flight plan on PilotEdge
Remarks:
Altitude:
(Current/Filed)
34,000ft
Speed:
(Current/Filed)
330kts
Departed: 10-Apr-18 05:10 PM
Arrived: 10-Apr-18 06:21 PM
Distance/Time
Traveled:
358nm/1:11
Distance/Time
To Go:
Arrived

Flight Plot

Page will automatically refresh every two minutes.

Flight plan parsing failed; only flown route is shown


Map Options




Map Legend


Flown Route
Filed Route
Departure Airport
Arrival Airport
Navaid (VOR, NDB)
Fix

Horizontal Profiles

Position Reports

Time Latitude Longitude Heading Altitude Ground
Speed
10-Apr-18 16:33 37.627191 -122.383643 297 19ft 0kts
10-Apr-18 16:34 37.627191 -122.383643 297 19ft 0kts
10-Apr-18 16:35 37.627191 -122.383643 297 19ft 0kts
10-Apr-18 16:36 37.627191 -122.383643 297 19ft 0kts
10-Apr-18 16:37 37.627191 -122.383643 297 19ft 0kts
10-Apr-18 16:38 37.627191 -122.383643 297 19ft 0kts
10-Apr-18 16:39 37.627191 -122.383643 297 19ft 0kts
10-Apr-18 16:40 37.627191 -122.383643 297 19ft 0kts
10-Apr-18 16:41 37.627191 -122.383643 297 19ft 0kts
10-Apr-18 16:42 37.627191 -122.383643 297 19ft 0kts
10-Apr-18 16:43 37.627191 -122.383643 297 19ft 0kts
10-Apr-18 16:44 37.627191 -122.383643 297 19ft 0kts
10-Apr-18 16:45 37.627191 -122.383643 297 19ft 0kts
10-Apr-18 16:46 37.627191 -122.383643 297 19ft 0kts
10-Apr-18 16:47 37.627191 -122.383643 297 19ft 0kts
10-Apr-18 16:48 37.627191 -122.383643 297 19ft 0kts
10-Apr-18 16:49 37.627191 -122.383643 297 19ft 0kts
10-Apr-18 16:50 37.627191 -122.383643 297 19ft 0kts
10-Apr-18 16:51 37.627191 -122.383643 297 19ft 0kts
10-Apr-18 16:52 37.627191 -122.383643 297 19ft 0kts
10-Apr-18 16:53 37.627191 -122.383643 297 19ft 0kts
10-Apr-18 16:54 37.627191 -122.383643 297 19ft 0kts
10-Apr-18 16:55 37.627191 -122.383643 297 19ft 0kts
10-Apr-18 16:56 37.627191 -122.383643 297 19ft 0kts
10-Apr-18 16:57 37.627191 -122.383643 297 19ft 0kts
10-Apr-18 16:58 37.627191 -122.383643 297 19ft 0kts
10-Apr-18 16:59 37.627191 -122.383643 297 19ft 0kts
10-Apr-18 17:00 37.627191 -122.383644 297 19ft 0kts
10-Apr-18 17:01 37.625347 -122.381594 118 20ft 18kts
10-Apr-18 17:02 37.624224 -122.378799 114 20ft 8kts
10-Apr-18 17:03 37.621450 -122.372262 117 19ft 33kts
10-Apr-18 17:04 37.617340 -122.362520 118 20ft 21kts
10-Apr-18 17:05 37.615124 -122.357230 117 19ft 17kts
10-Apr-18 17:06 37.614536 -122.356740 187 19ft 0kts
10-Apr-18 17:07 37.614536 -122.356740 187 19ft 0kts
10-Apr-18 17:08 37.613936 -122.358123 296 20ft 0kts
10-Apr-18 17:09 37.627724 -122.390436 303 1318ft 195kts
10-Apr-18 17:10 37.664395 -122.357786 60 4897ft 217kts
10-Apr-18 17:11 37.694965 -122.278658 63 7252ft 284kts
10-Apr-18 17:12 37.749453 -122.218210 7 10472ft 291kts
10-Apr-18 17:13 37.833200 -122.198687 4 12976ft 329kts
10-Apr-18 17:14 37.924267 -122.181640 2 15683ft 348kts
10-Apr-18 17:15 38.020535 -122.165149 1 18147ft 366kts
10-Apr-18 17:16 38.121766 -122.148268 0 20384ft 383kts
10-Apr-18 17:17 38.228501 -122.130570 359 22399ft 398kts
10-Apr-18 17:18 38.339618 -122.114202 349 24199ft 404kts
10-Apr-18 17:19 38.455136 -122.121362 348 25178ft 453kts
10-Apr-18 17:20 38.582194 -122.129793 347 27613ft 471kts
10-Apr-18 17:21 38.714507 -122.138863 347 29669ft 489kts
10-Apr-18 17:22 38.851109 -122.148268 346 31748ft 497kts
10-Apr-18 17:23 38.985960 -122.157626 345 33914ft 498kts
10-Apr-18 17:24 39.126924 -122.167512 346 33926ft 515kts
10-Apr-18 17:25 39.264374 -122.176999 345 33920ft 479kts
10-Apr-18 17:26 39.393593 -122.186102 344 33911ft 457kts
10-Apr-18 17:27 39.518061 -122.194930 344 33911ft 452kts
10-Apr-18 17:28 39.643649 -122.203895 345 33916ft 464kts
10-Apr-18 17:29 39.773659 -122.213135 345 33917ft 477kts
10-Apr-18 17:30 39.907492 -122.222680 345 33918ft 487kts
10-Apr-18 17:31 40.039044 -122.232083 345 33914ft 494kts
10-Apr-18 17:32 40.163279 -122.279403 323 33897ft 461kts
10-Apr-18 17:33 40.279603 -122.349333 321 33890ft 461kts
10-Apr-18 17:34 40.394928 -122.420933 321 33884ft 462kts
10-Apr-18 17:35 40.510440 -122.493310 321 33880ft 464kts
10-Apr-18 17:36 40.626739 -122.566546 321 33883ft 465kts
10-Apr-18 17:37 40.743170 -122.640160 321 33884ft 466kts
10-Apr-18 17:38 40.859168 -122.713782 321 33900ft 468kts
10-Apr-18 17:39 40.975835 -122.788136 321 33902ft 470kts
10-Apr-18 17:40 41.093205 -122.863297 322 33888ft 473kts
10-Apr-18 17:41 41.208865 -122.937543 323 33867ft 473kts
10-Apr-18 17:42 41.326028 -123.013075 323 33869ft 471kts
10-Apr-18 17:43 41.443385 -123.089055 324 33870ft 470kts
10-Apr-18 17:44 41.559660 -123.164618 324 33891ft 468kts
10-Apr-18 17:45 41.674266 -123.239434 324 32817ft 467kts
10-Apr-18 17:46 41.791149 -123.316060 325 30554ft 472kts
10-Apr-18 17:47 41.908688 -123.393409 326 27881ft 478kts
10-Apr-18 17:48 42.025946 -123.470775 326 26043ft 452kts
10-Apr-18 17:49 42.131599 -123.540810 325 25574ft 414kts
10-Apr-18 17:50 42.233669 -123.608829 326 24126ft 406kts
10-Apr-18 17:51 42.333070 -123.675259 325 22699ft 397kts
10-Apr-18 17:52 42.430396 -123.740522 325 20872ft 386kts
10-Apr-18 17:53 42.524216 -123.803647 326 18666ft 373kts
10-Apr-18 17:54 42.614802 -123.864803 326 16347ft 360kts
10-Apr-18 17:55 42.702156 -123.923965 327 13904ft 348kts
10-Apr-18 17:56 42.785259 -123.980342 327 12128ft 309kts
10-Apr-18 17:57 42.858717 -124.030411 327 10308ft 293kts
10-Apr-18 17:58 42.928674 -124.078211 328 7737ft 282kts
10-Apr-18 17:59 42.996594 -124.124740 328 4789ft 270kts
10-Apr-18 18:00 43.059519 -124.167824 328 2993ft 215kts
10-Apr-18 18:01 43.113226 -124.180228 357 3014ft 212kts
10-Apr-18 18:02 43.169492 -124.178651 357 3001ft 191kts
10-Apr-18 18:03 43.219133 -124.176853 356 3026ft 173kts
10-Apr-18 18:04 43.271998 -124.174828 358 3016ft 216kts
10-Apr-18 18:05 43.331610 -124.182298 305 2985ft 198kts
10-Apr-18 18:06 43.349105 -124.244293 285 3213ft 173kts
10-Apr-18 18:07 43.365335 -124.304483 284 5435ft 173kts
10-Apr-18 18:08 43.416414 -124.328410 35 6025ft 315kts
10-Apr-18 18:09 43.429887 -124.224655 102 5990ft 241kts
10-Apr-18 18:10 43.423362 -124.148250 102 5898ft 187kts
10-Apr-18 18:11 43.416737 -124.071332 101 4298ft 203kts
10-Apr-18 18:12 43.389152 -124.015523 136 3922ft 184kts
10-Apr-18 18:13 43.377449 -123.951936 34 3918ft 208kts
10-Apr-18 18:14 43.410492 -123.980453 268 3522ft 159kts
10-Apr-18 18:15 43.412174 -124.039246 267 2514ft 141kts
10-Apr-18 18:16 43.413632 -124.095718 269 2514ft 154kts
10-Apr-18 18:17 43.415181 -124.156230 267 2509ft 162kts
10-Apr-18 18:18 43.421515 -124.215051 300 925ft 156kts
10-Apr-18 18:19 43.417872 -124.252911 240 24ft 42kts
10-Apr-18 18:20 43.415794 -124.255699 142 24ft 0kts
10-Apr-18 18:21 43.416088 -124.254152 60 24ft 12kts
10-Apr-18 18:22 43.418034 -124.249527 60 24ft 19kts
10-Apr-18 18:23 43.417327 -124.245718 177 24ft 11kts
10-Apr-18 18:24 43.416334 -124.246284 59 24ft 0kts
10-Apr-18 18:25 43.416334 -124.246284 59 24ft 0kts
10-Apr-18 18:26 43.416334 -124.246284 59 24ft 0kts
10-Apr-18 18:27 43.416334 -124.246284 59 24ft 0kts
10-Apr-18 18:28 43.416334 -124.246284 59 24ft 0kts
10-Apr-18 18:29 43.416334 -124.246284 59 24ft 0kts
10-Apr-18 18:30 43.416334 -124.246284 59 24ft 0kts
10-Apr-18 18:31 43.416334 -124.246284 59 24ft 0kts
10-Apr-18 18:32 43.416334 -124.246284 59 24ft 0kts
10-Apr-18 18:33 43.416334 -124.246284 59 24ft 0kts
10-Apr-18 18:34 43.416334 -124.246284 59 24ft 0kts

Navigation Log

Ident Type
Flight plan parsing failed, navigation log unavailable